Time;durP1;ratioP1;P1;durP2;ratioP2;P2;SDS_P1;SDS_P2;PMS_P1;PMS_P2;Temp;Humidity;BMP_temperature;BMP_pressure;BME280_temperature;BME280_humidity;BME280_pressure;Samples;Min_cycle;Max_cycle;Signal;HPM_P1;HPM_P2
2023/04/11 00:02:08;;;;;;;;;;;;;;;17.23;38.65;100373.75;4970430;27;127370;-68
2023/04/11 00:04:37;;;;;;;;;;;;;;;17.20;38.72;100368.13;4969293;27;125742;-68
2023/04/11 00:07:04;;;;;;;;;;;;;;;17.17;38.86;100358.66;4975090;27;98673;-68
2023/04/11 00:09:30;;;;;;;;;;;;;;;17.12;38.70;100354.16;4973618;27;98753;-66
2023/04/11 00:11:56;;;;;;;;;;;;;;;17.09;38.78;100353.97;4970704;27;126322;-67
2023/04/11 00:14:22;;;;;;;;;;;;;;;17.05;38.85;100359.22;4974097;27;98657;-66
2023/04/11 00:16:48;;;;;;;;;;;;;;;17.04;38.74;100343.22;4972126;27;122865;-67
2023/04/11 00:19:15;;;;;;;;;;;;;;;17.00;38.73;100337.59;4973789;27;98419;-68
2023/04/11 00:21:42;;;;;;;;;;;;;;;16.98;38.67;100333.56;4971523;27;99117;-68
2023/04/11 00:24:08;;;;;;;;;;;;;;;16.94;38.65;100325.25;4971670;27;98188;-66
2023/04/11 00:26:34;;;;;;;;;;;;;;;16.90;38.93;100325.06;4973634;27;120781;-66
2023/04/11 00:29:00;;;;;;;;;;;;;;;16.89;38.82;100320.72;4968170;27;128743;-68
2023/04/11 00:31:26;;;;;;;;;;;;;;;16.86;38.76;100310.47;4969678;27;128223;-67
2023/04/11 00:33:52;;;;;;;;;;;;;;;16.83;38.97;100313.03;4970580;27;125949;-68
2023/04/11 00:36:18;;;;;;;;;;;;;;;16.81;38.69;100298.91;4973748;27;109922;-68
2023/04/11 00:38:45;;;;;;;;;;;;;;;16.79;38.77;100296.50;4972594;27;127273;-67
2023/04/11 00:41:11;;;;;;;;;;;;;;;16.77;38.92;100287.84;4974887;27;98503;-66
2023/04/11 00:43:37;;;;;;;;;;;;;;;16.75;38.74;100290.09;4953304;27;126511;-66
2023/04/11 00:46:03;;;;;;;;;;;;;;;16.73;38.69;100289.59;4957499;28;98292;-66
2023/04/11 00:48:29;;;;;;;;;;;;;;;16.73;38.76;100284.13;4952003;27;121529;-66
2023/04/11 00:50:55;;;;;;;;;;;;;;;16.70;38.79;100279.28;4955375;28;98614;-67
2023/04/11 00:53:21;;;;;;;;;;;;;;;16.68;38.91;100276.88;4951596;27;127899;-66
2023/04/11 00:55:47;;;;;;;;;;;;;;;16.67;38.73;100269.84;4972129;27;124486;-68
2023/04/11 00:58:15;;;;;;;;;;;;;;;16.66;38.80;100265.53;4954053;27;129030;-66
2023/04/11 01:00:41;;;;;;;;;;;;;;;16.65;38.74;100263.91;4956005;27;98776;-66
2023/04/11 01:03:07;;;;;;;;;;;;;;;16.64;38.79;100250.63;4957074;27;98700;-66
2023/04/11 01:05:33;;;;;;;;;;;;;;;16.62;38.80;100255.56;4970366;27;119752;-66
2023/04/11 01:07:59;;;;;;;;;;;;;;;16.62;38.89;100261.00;4952168;28;128830;-68
2023/04/11 01:10:27;;;;;;;;;;;;;;;16.61;38.95;100270.28;4932859;28;127381;-66
2023/04/11 01:12:53;;;;;;;;;;;;;;;16.58;38.91;100258.09;4933115;28;98551;-66
2023/04/11 01:15:19;;;;;;;;;;;;;;;16.57;38.70;100258.41;4950103;28;123014;-68
2023/04/11 01:17:46;;;;;;;;;;;;;;;16.57;38.88;100253.78;4935390;28;98383;-66
2023/04/11 01:20:12;;;;;;;;;;;;;;;16.56;38.88;100254.91;4916421;28;98445;-68
2023/04/11 01:22:38;;;;;;;;;;;;;;;16.55;38.67;100244.34;4933910;28;107715;-68
2023/04/11 01:25:04;;;;;;;;;;;;;;;16.53;38.91;100244.63;4938288;28;123380;-67
2023/04/11 01:27:32;;;;;;;;;;;;;;;16.52;38.88;100234.06;4948714;28;98804;-67
2023/04/11 01:29:58;;;;;;;;;;;;;;;16.51;38.71;100244.16;4949968;28;99273;-66
2023/04/11 01:32:24;;;;;;;;;;;;;;;16.50;38.96;100237.09;4953580;28;125846;-68
2023/04/11 01:34:50;;;;;;;;;;;;;;;16.50;38.81;100244.44;4946990;28;122320;-68
2023/04/11 01:37:16;;;;;;;;;;;;;;;16.49;38.76;100237.41;4932802;28;118726;-66
2023/04/11 01:39:42;;;;;;;;;;;;;;;16.48;38.83;100233.91;4950536;28;127345;-67
2023/04/11 01:42:08;;;;;;;;;;;;;;;16.48;38.92;100227.66;4936874;28;127719;-68
2023/04/11 01:44:35;;;;;;;;;;;;;;;16.47;38.88;100226.06;4924034;28;123631;-66
2023/04/11 01:47:01;;;;;;;;;;;;;;;16.46;38.78;100219.78;4950696;28;114034;-68
2023/04/11 01:49:27;;;;;;;;;;;;;;;16.47;38.89;100217.91;4948335;28;125868;-66
2023/04/11 01:51:53;;;;;;;;;;;;;;;16.45;38.78;100204.59;4932162;28;125803;-68
2023/04/11 01:54:19;;;;;;;;;;;;;;;16.47;38.79;100198.84;4950436;28;97924;-66
2023/04/11 01:56:45;;;;;;;;;;;;;;;16.44;38.69;100190.19;4951413;28;128120;-68
2023/04/11 01:59:11;;;;;;;;;;;;;;;16.44;38.73;100170.34;4930745;28;122680;-67
2023/04/11 02:01:36;;;;;;;;;;;;;;;16.44;38.94;100152.09;4947589;28;127549;-67
2023/04/11 02:04:02;;;;;;;;;;;;;;;16.44;38.96;100146.66;4946282;28;122568;-66
2023/04/11 02:06:28;;;;;;;;;;;;;;;16.44;38.79;100143.16;4951265;28;127851;-68
2023/04/11 02:08:54;;;;;;;;;;;;;;;16.43;38.75;100142.34;4955658;28;116416;-66
2023/04/11 02:11:20;;;;;;;;;;;;;;;16.43;38.87;100122.50;4957350;27;98470;-67
2023/04/11 02:13:46;;;;;;;;;;;;;;;16.43;38.94;100125.22;4952995;27;111247;-68
2023/04/11 02:16:13;;;;;;;;;;;;;;;16.43;38.70;100119.78;4967124;27;128461;-68
2023/04/11 02:18:40;;;;;;;;;;;;;;;16.44;38.70;100118.66;4951465;27;98260;-66
2023/04/11 02:21:06;;;;;;;;;;;;;;;16.42;38.87;100108.09;4972424;27;99664;-67
2023/04/11 02:23:33;;;;;;;;;;;;;;;16.43;38.93;100104.28;4973910;27;97874;-66
2023/04/11 02:26:00;;;;;;;;;;;;;;;16.43;38.83;100104.28;4972262;27;99746;-66
2023/04/11 02:28:26;;;;;;;;;;;;;;;16.43;38.92;100092.59;4970417;27;100272;-66
2023/04/11 02:30:52;;;;;;;;;;;;;;;16.43;38.87;100084.44;4968563;27;125696;-67
2023/04/11 02:33:18;;;;;;;;;;;;;;;16.44;38.82;100097.72;4970915;27;98014;-68
2023/04/11 02:35:44;;;;;;;;;;;;;;;16.44;38.88;100086.03;4951831;27;98910;-68
2023/04/11 02:38:10;;;;;;;;;;;;;;;16.43;38.87;100087.94;4966341;27;123815;-68
2023/04/11 02:40:36;;;;;;;;;;;;;;;16.44;38.59;100080.59;4968649;27;129325;-65
2023/04/11 02:43:02;;;;;;;;;;;;;;;16.44;38.84;100073.22;4971312;27;122653;-66
2023/04/11 02:45:28;;;;;;;;;;;;;;;16.45;38.71;100068.59;4973175;27;98218;-66
2023/04/11 02:47:54;;;;;;;;;;;;;;;16.45;38.83;100069.38;4972490;27;115959;-68
2023/04/11 02:50:20;;;;;;;;;;;;;;;16.44;38.69;100065.06;4954197;27;105546;-66
2023/04/11 02:52:48;;;;;;;;;;;;;;;16.45;38.93;100069.38;4933640;27;123449;-66
2023/04/11 02:55:13;;;;;;;;;;;;;;;16.46;38.69;100067.47;4969451;27;98390;-66
2023/04/11 02:57:39;;;;;;;;;;;;;;;16.46;38.79;100067.47;4968295;27;128451;-65
2023/04/11 03:00:07;;;;;;;;;;;;;;;16.48;38.78;100075.31;4966617;27;127818;-66
2023/04/11 03:02:33;;;;;;;;;;;;;;;16.47;38.93;100062.84;4972336;27;98158;-68
2023/04/11 03:05:02;;;;;;;;;;;;;;;16.47;38.57;100063.63;4969335;27;126042;-66
2023/04/11 03:07:31;;;;;;;;;;;;;;;16.47;38.87;100058.19;4973474;27;99076;-66
2023/04/11 03:10:00;;;;;;;;;;;;;;;16.48;38.69;100061.72;4971156;27;98159;-66
2023/04/11 03:12:26;;;;;;;;;;;;;;;16.49;38.97;100060.59;4973932;27;98301;-66
2023/04/11 03:14:52;;;;;;;;;;;;;;;16.48;39.01;100059.78;4971884;27;128889;-66
2023/04/11 03:17:18;;;;;;;;;;;;;;;16.49;38.90;100060.59;4975293;27;101086;-68
2023/04/11 03:19:44;;;;;;;;;;;;;;;16.48;38.98;100054.34;4970745;27;124645;-68
2023/04/11 03:22:11;;;;;;;;;;;;;;;16.48;38.69;100048.91;4971773;27;98295;-68
2023/04/11 03:24:38;;;;;;;;;;;;;;;16.49;38.98;100044.28;4972175;27;123547;-66
2023/04/11 03:27:04;;;;;;;;;;;;;;;16.48;38.94;100051.63;4972974;27;98773;-66
2023/04/11 03:29:31;;;;;;;;;;;;;;;16.50;38.81;100052.09;4967579;27;98469;-66
2023/04/11 03:31:57;;;;;;;;;;;;;;;16.49;38.87;100041.56;4957192;28;98119;-67
2023/04/11 03:34:24;;;;;;;;;;;;;;;16.49;38.85;100039.63;4950795;28;116033;-66
2023/04/11 03:36:51;;;;;;;;;;;;;;;16.49;38.85;100045.06;4971951;27;98438;-66
2023/04/11 03:39:20;;;;;;;;;;;;;;;16.50;38.79;100048.59;4970317;27;127519;-68
2023/04/11 03:41:46;;;;;;;;;;;;;;;16.49;38.77;100045.06;4956374;27;98053;-67
2023/04/11 03:44:12;;;;;;;;;;;;;;;16.49;38.99;100042.34;4951421;27;123917;-66
2023/04/11 03:46:38;;;;;;;;;;;;;;;16.51;38.75;100039.34;4971445;27;104857;-68
2023/04/11 03:49:04;;;;;;;;;;;;;;;16.51;38.94;100020.28;4940162;28;129442;-68
2023/04/11 03:51:30;;;;;;;;;;;;;;;16.50;38.86;100019.47;4971517;27;98748;-68
2023/04/11 03:53:56;;;;;;;;;;;;;;;16.50;38.86;100022.19;4970792;27;98346;-65
2023/04/11 03:56:22;;;;;;;;;;;;;;;16.51;38.93;100009.41;4971583;27;98296;-66
2023/04/11 03:58:48;;;;;;;;;;;;;;;16.53;38.80;100002.50;4970505;27;126952;-68
2023/04/11 04:01:14;;;;;;;;;;;;;;;16.60;38.83;100002.84;4969925;27;120943;-68
2023/04/11 04:03:40;;;;;;;;;;;;;;;16.67;38.74;100005.91;4968609;27;127782;-68
2023/04/11 04:06:06;;;;;;;;;;;;;;;16.74;38.82;100002.75;4971031;27;128107;-68
2023/04/11 04:08:32;;;;;;;;;;;;;;;16.80;38.87;100004.16;4970543;27;118193;-68
2023/04/11 04:10:58;;;;;;;;;;;;;;;16.85;38.83;99987.66;4950260;28;122793;-68
2023/04/11 04:13:24;;;;;;;;;;;;;;;16.89;38.71;99991.34;4949880;28;127139;-66
2023/04/11 04:15:53;;;;;;;;;;;;;;;16.94;38.79;99993.13;4932653;28;101562;-68
2023/04/11 04:18:19;;;;;;;;;;;;;;;16.98;38.86;99987.81;4936239;28;97890;-66
2023/04/11 04:20:45;;;;;;;;;;;;;;;17.00;38.82;99999.22;4949615;28;98131;-65
2023/04/11 04:23:13;;;;;;;;;;;;;;;17.01;38.85;99998.06;4950108;28;125230;-67
2023/04/11 04:25:40;;;;;;;;;;;;;;;17.03;38.88;99993.13;4953421;28;98746;-65
2023/04/11 04:28:07;;;;;;;;;;;;;;;17.04;38.88;99990.06;4950828;28;98002;-65
2023/04/11 04:30:32;;;;;;;;;;;;;;;17.06;38.80;99982.41;4953357;28;97978;-66
2023/04/11 04:32:59;;;;;;;;;;;;;;;17.07;38.74;99983.19;4949768;28;128057;-67
2023/04/11 04:35:25;;;;;;;;;;;;;;;17.08;38.75;99979.34;4951517;28;100221;-65
2023/04/11 04:37:52;;;;;;;;;;;;;;;17.08;38.85;99988.31;4951697;28;114417;-64
2023/04/11 04:40:19;;;;;;;;;;;;;;;17.08;38.91;99988.31;4953325;28;98090;-64
2023/04/11 04:42:48;;;;;;;;;;;;;;;17.10;38.85;99990.72;4954012;28;98730;-66
2023/04/11 04:45:14;;;;;;;;;;;;;;;17.09;38.78;99995.34;4951861;28;98483;-67
2023/04/11 04:47:40;;;;;;;;;;;;;;;17.09;38.75;100003.50;4949753;28;98133;-65
2023/04/11 04:50:07;;;;;;;;;;;;;;;17.09;38.98;99997.25;4948944;28;120066;-67
2023/04/11 04:52:32;;;;;;;;;;;;;;;17.08;38.85;100001.13;4950231;28;98245;-68
2023/04/11 04:54:58;;;;;;;;;;;;;;;17.08;38.93;100003.84;4950120;28;118664;-68
2023/04/11 04:57:28;;;;;;;;;;;;;;;17.08;39.00;100012.81;4948412;28;98778;-67
2023/04/11 04:59:56;;;;;;;;;;;;;;;17.07;38.85;100007.69;4951490;28;98304;-68
2023/04/11 05:02:24;;;;;;;;;;;;;;;17.07;39.01;100007.69;4940319;28;121392;-64
2023/04/11 05:04:50;;;;;;;;;;;;;;;17.06;38.92;100001.44;4946366;28;99153;-67
2023/04/11 05:07:17;;;;;;;;;;;;;;;17.05;38.87;99997.09;4926673;28;128345;-63
2023/04/11 05:09:42;;;;;;;;;;;;;;;17.03;38.88;99988.47;4957127;27;97886;-67
2023/04/11 05:12:08;;;;;;;;;;;;;;;17.02;38.95;99986.88;4954995;27;128365;-68
2023/04/11 05:14:34;;;;;;;;;;;;;;;17.01;38.97;99990.72;4969060;27;126398;-68
2023/04/11 05:17:00;;;;;;;;;;;;;;;17.00;38.80;99983.66;4967979;27;99457;-65
2023/04/11 05:19:26;;;;;;;;;;;;;;;16.98;38.75;99983.19;4948882;28;122633;-68
2023/04/11 05:21:52;;;;;;;;;;;;;;;16.98;39.00;99975.03;4947383;27;127836;-65
2023/04/11 05:24:18;;;;;;;;;;;;;;;16.97;38.99;99965.25;4965790;27;117780;-68
2023/04/11 05:26:44;;;;;;;;;;;;;;;16.94;38.92;99960.47;4966011;27;125739;-68
2023/04/11 05:29:10;;;;;;;;;;;;;;;16.93;38.96;99956.13;4963948;27;98020;-65
2023/04/11 05:31:36;;;;;;;;;;;;;;;16.90;38.97;99956.78;4949846;27;127809;-68
2023/04/11 05:34:02;;;;;;;;;;;;;;;16.88;38.95;99956.31;4953788;27;98607;-65
2023/04/11 05:36:29;;;;;;;;;;;;;;;16.86;39.05;99950.38;4963644;27;127559;-68
2023/04/11 05:38:54;;;;;;;;;;;;;;;16.83;39.14;99954.53;4966157;27;117811;-68
2023/04/11 05:41:20;;;;;;;;;;;;;;;16.81;39.08;99951.34;4951627;27;128265;-68
2023/04/11 05:43:46;;;;;;;;;;;;;;;16.80;39.01;99943.50;4962813;27;128378;-65
2023/04/11 05:46:12;;;;;;;;;;;;;;;16.79;38.92;99941.91;4964827;27;127461;-69
2023/04/11 05:48:38;;;;;;;;;;;;;;;16.77;38.97;99947.66;4967922;27;98134;-65
2023/04/11 05:51:04;;;;;;;;;;;;;;;16.75;39.02;99949.91;4967381;27;98461;-66
2023/04/11 05:53:30;;;;;;;;;;;;;;;16.73;39.02;99945.88;4965204;27;99410;-69
2023/04/11 05:55:56;;;;;;;;;;;;;;;16.72;39.11;99947.00;4968795;27;98071;-65
2023/04/11 05:58:23;;;;;;;;;;;;;;;16.69;39.09;99951.16;4967402;27;98155;-69
2023/04/11 06:00:49;;;;;;;;;;;;;;;16.67;39.15;99948.75;4947465;27;124961;-69
2023/04/11 06:03:15;;;;;;;;;;;;;;;16.66;39.10;99947.16;4944943;27;98808;-69
2023/04/11 06:05:41;;;;;;;;;;;;;;;16.67;38.99;99948.75;4969453;27;98159;-66
2023/04/11 06:08:07;;;;;;;;;;;;;;;16.65;39.07;99934.66;4968923;27;121230;-66
2023/04/11 06:10:34;;;;;;;;;;;;;;;16.66;39.07;99952.59;4969059;27;98283;-66
2023/04/11 06:13:00;;;;;;;;;;;;;;;16.66;39.21;99946.34;4966979;27;98821;-69
2023/04/11 06:15:26;;;;;;;;;;;;;;;16.64;38.95;99957.56;4963078;27;124370;-69
2023/04/11 06:17:52;;;;;;;;;;;;;;;16.65;39.09;99950.19;4933640;27;107298;-66
2023/04/11 06:20:18;;;;;;;;;;;;;;;16.64;38.96;99946.66;4947803;27;126473;-69
2023/04/11 06:22:49;;;;;;;;;;;;;;;16.63;39.05;99947.81;4964066;27;126806;-69
2023/04/11 06:25:16;;;;;;;;;;;;;;;16.63;39.02;99952.44;4963736;27;98220;-66
2023/04/11 06:27:42;;;;;;;;;;;;;;;16.63;39.11;99950.53;4965208;27;120495;-69
2023/04/11 06:30:08;;;;;;;;;;;;;;;16.63;39.10;99950.53;4965135;27;129505;-67
2023/04/11 06:32:34;;;;;;;;;;;;;;;16.62;39.09;99954.38;4966456;27;99082;-67
2023/04/11 06:35:00;;;;;;;;;;;;;;;16.62;38.98;99961.69;4968229;27;97982;-66
2023/04/11 06:37:26;;;;;;;;;;;;;;;16.60;39.04;99962.03;4966406;27;125642;-67
2023/04/11 06:39:52;;;;;;;;;;;;;;;16.60;39.23;99967.47;4965203;27;127824;-64
2023/04/11 06:42:18;;;;;;;;;;;;;;;16.61;39.04;99977.22;4967070;27;126097;-63
2023/04/11 06:44:47;;;;;;;;;;;;;;;16.63;39.17;99988.59;4964723;27;127166;-67
2023/04/11 06:47:13;;;;;;;;;;;;;;;16.63;39.19;99994.06;4965521;27;122712;-67
2023/04/11 06:49:40;;;;;;;;;;;;;;;16.63;39.16;99994.06;4964569;27;127442;-63
2023/04/11 06:52:06;;;;;;;;;;;;;;;16.63;39.11;99998.69;4965194;27;127671;-65
2023/04/11 06:54:32;;;;;;;;;;;;;;;16.64;39.18;99995.66;4965975;27;127555;-63
2023/04/11 06:56:58;;;;;;;;;;;;;;;16.64;39.11;100000.28;4964069;27;122345;-63
2023/04/11 06:59:23;;;;;;;;;;;;;;;16.64;39.02;100009.25;4967039;27;99383;-64
2023/04/11 07:01:49;;;;;;;;;;;;;;;16.65;39.22;100012.75;4966631;27;99593;-66
2023/04/11 07:04:15;;;;;;;;;;;;;;;16.67;38.96;100013.25;4967144;27;125892;-66
2023/04/11 07:06:41;;;;;;;;;;;;;;;16.68;39.06;100017.59;4965676;27;122504;-66
2023/04/11 07:09:11;;;;;;;;;;;;;;;16.68;39.12;100007.50;4962591;27;127782;-64
2023/04/11 07:11:37;;;;;;;;;;;;;;;16.70;38.98;100015.31;4965573;27;99116;-63
2023/04/11 07:14:03;;;;;;;;;;;;;;;16.67;39.06;100016.78;4966849;27;98405;-64
2023/04/11 07:16:29;;;;;;;;;;;;;;;16.70;39.13;100004.44;4966402;27;122721;-64
2023/04/11 07:18:55;;;;;;;;;;;;;;;16.74;38.98;100012.81;4963884;27;99042;-67
2023/04/11 07:21:21;;;;;;;;;;;;;;;16.77;39.07;100004.00;4965594;27;98992;-67
2023/04/11 07:23:47;;;;;;;;;;;;;;;16.82;39.02;100012.84;4964200;27;125741;-68
2023/04/11 07:26:13;;;;;;;;;;;;;;;16.88;39.02;100000.66;4964434;27;123378;-64
2023/04/11 07:28:39;;;;;;;;;;;;;;;16.92;38.86;100004.31;4964004;27;99431;-68
2023/04/11 07:31:06;;;;;;;;;;;;;;;16.99;38.91;100001.13;4946490;27;99181;-65
2023/04/11 07:33:33;;;;;;;;;;;;;;;17.03;38.94;100009.47;4965061;27;98931;-65
2023/04/11 07:35:59;;;;;;;;;;;;;;;17.04;38.81;100006.41;4966045;27;98048;-68
2023/04/11 07:38:28;;;;;;;;;;;;;;;17.05;39.00;100005.28;4947495;28;99723;-68
2023/04/11 07:40:59;;;;;;;;;;;;;;;17.06;38.81;100006.91;4967317;27;98381;-64
2023/04/11 07:43:25;;;;;;;;;;;;;;;17.12;38.84;100015.69;4966951;27;98767;-64
2023/04/11 07:45:51;;;;;;;;;;;;;;;17.16;38.97;100013.94;4963621;27;122933;-68
2023/04/11 07:48:17;;;;;;;;;;;;;;;17.22;38.97;100012.66;4965567;27;98208;-65
2023/04/11 07:50:43;;;;;;;;;;;;;;;17.25;38.82;100014.72;4949119;27;128119;-70
2023/04/11 07:53:09;;;;;;;;;;;;;;;17.28;38.83;100018.72;4965018;27;127052;-65
2023/04/11 07:55:36;;;;;;;;;;;;;;;17.27;38.81;100017.91;4966812;27;99225;-68
2023/04/11 07:58:02;;;;;;;;;;;;;;;17.32;38.85;100025.13;4968188;27;98234;-64
2023/04/11 08:00:31;;;;;;;;;;;;;;;17.36;39.02;100026.06;4951975;28;128750;-64
2023/04/11 08:03:06;;;;;;;;;;;;;;;17.37;38.86;100014.88;4967722;27;99856;-69
2023/04/11 08:05:33;;;;;;;;;;;;;;;17.39;39.07;100018.06;4968352;27;110200;-68
2023/04/11 08:07:59;;;;;;;;;;;;;;;17.39;38.90;100028.16;4947473;27;98949;-64
2023/04/11 08:10:25;;;;;;;;;;;;;;;17.40;39.00;100021.56;4967836;27;99115;-64
2023/04/11 08:12:51;;;;;;;;;;;;;;;17.41;38.90;100013.09;4968254;27;127504;-68
2023/04/11 08:15:17;;;;;;;;;;;;;;;17.42;38.91;100011.97;4969964;27;98102;-68
2023/04/11 08:17:44;;;;;;;;;;;;;;;17.48;39.04;100009.06;4970098;27;98625;-65
2023/04/11 08:20:10;;;;;;;;;;;;;;;17.55;38.77;100012.88;4968550;27;98476;-68
2023/04/11 08:22:38;;;;;;;;;;;;;;;17.64;38.84;100019.13;4970210;27;98073;-68
2023/04/11 08:25:07;;;;;;;;;;;;;;;17.72;38.73;100022.94;4948282;27;98413;-68
2023/04/11 08:27:33;;;;;;;;;;;;;;;17.80;38.67;100024.06;4967887;27;99834;-68
2023/04/11 08:29:59;;;;;;;;;;;;;;;17.80;38.83;100024.88;4969008;27;98570;-68
2023/04/11 08:32:25;;;;;;;;;;;;;;;17.79;38.90;100026.00;4967660;27;126404;-68
2023/04/11 08:34:51;;;;;;;;;;;;;;;17.77;38.87;100020.09;4967444;27;98567;-65
2023/04/11 08:37:17;;;;;;;;;;;;;;;17.77;38.97;100017.34;4966681;27;127494;-65
2023/04/11 08:39:42;;;;;;;;;;;;;;;17.83;38.76;100016.03;4963668;27;128299;-69
2023/04/11 08:42:25;;;;;;;;;;;;;;;17.95;38.76;100009.09;4949735;27;127137;-65
2023/04/11 08:44:59;;;;;;;;;;;;;;;18.06;38.57;100019.31;4965050;27;101113;-65
2023/04/11 08:47:25;;;;;;;;;;;;;;;18.15;38.64;100027.44;4969693;27;98998;-65
2023/04/11 08:49:51;;;;;;;;;;;;;;;18.21;38.81;100022.63;4967698;27;125916;-69
2023/04/11 08:52:18;;;;;;;;;;;;;;;18.19;38.71;100022.94;4966092;27;117391;-65
2023/04/11 08:54:44;;;;;;;;;;;;;;;18.15;38.92;100035.63;4966118;27;98354;-65
2023/04/11 08:57:18;;;;;;;;;;;;;;;18.09;38.77;100032.31;4970310;27;99184;-65
2023/04/11 08:59:50;;;;;;;;;;;;;;;18.06;38.89;100026.69;4949386;27;120302;-65
2023/04/11 09:02:16;;;;;;;;;;;;;;;18.02;38.87;100031.22;4968298;27;107914;-65
2023/04/11 09:04:42;;;;;;;;;;;;;;;17.97;38.96;100028.69;4964524;27;123375;-65
2023/04/11 09:07:08;;;;;;;;;;;;;;;17.95;39.07;100030.91;4966855;27;98607;-67
2023/04/11 09:09:38;;;;;;;;;;;;;;;17.95;39.17;100028.97;4966357;27;128588;-64
2023/04/11 09:12:04;;;;;;;;;;;;;;;17.95;39.03;100031.72;4965677;27;98480;-67
2023/04/11 09:14:30;;;;;;;;;;;;;;;17.99;39.04;100037.31;4970701;27;100541;-67
2023/04/11 09:17:00;;;;;;;;;;;;;;;17.99;39.08;100035.38;4968531;27;97942;-67
2023/04/11 09:19:27;;;;;;;;;;;;;;;18.01;39.08;100033.16;4968030;27;100354;-67
2023/04/11 09:21:55;;;;;;;;;;;;;;;18.03;39.03;100032.81;4944203;27;98502;-67
2023/04/11 09:24:21;;;;;;;;;;;;;;;18.06;39.10;100038.41;4060882;27;10000384;-67
2023/04/11 09:26:47;;;;;;;;;;;;;;;18.13;38.99;100032.44;4065697;27;10000899;-68
2023/04/11 09:29:36;;;;;;;;;;;;;;;18.29;38.83;100032.69;4950541;27;98267;-68
2023/04/11 09:32:02;;;;;;;;;;;;;;;18.39;38.74;100024.94;4950195;27;98169;-68
2023/04/11 09:34:29;;;;;;;;;;;;;;;18.52;38.68;100025.81;4947656;27;109368;-68
2023/04/11 09:36:55;;;;;;;;;;;;;;;18.59;38.64;100023.38;4967409;27;98850;-68
2023/04/11 09:39:21;;;;;;;;;;;;;;;18.68;38.57;100004.19;4951636;27;98771;-69
2023/04/11 09:41:47;;;;;;;;;;;;;;;18.86;38.58;100010.34;4965274;27;122583;-68
2023/04/11 09:44:13;;;;;;;;;;;;;;;19.26;38.01;100007.13;4968197;27;109233;-68
2023/04/11 09:46:57;;;;;;;;;;;;;;;19.99;37.53;100003.75;4932339;27;98434;-68
2023/04/11 09:49:23;;;;;;;;;;;;;;;19.91;37.74;100007.38;4963913;27;98304;-65
2023/04/11 09:51:50;;;;;;;;;;;;;;;20.12;37.74;100008.06;4966501;27;121592;-68
2023/04/11 09:54:17;;;;;;;;;;;;;;;20.77;37.24;100000.69;4965678;27;99658;-68
2023/04/11 09:56:43;;;;;;;;;;;;;;;21.61;36.55;99991.66;4947729;27;120069;-69
2023/04/11 09:59:09;;;;;;;;;;;;;;;22.38;36.14;99984.91;4946017;27;128636;-66
2023/04/11 10:01:36;;;;;;;;;;;;;;;22.74;36.17;99990.00;4932034;27;128022;-66
2023/04/11 10:04:03;;;;;;;;;;;;;;;22.72;36.62;99983.31;4935293;28;124534;-69
2023/04/11 10:07:00;;;;;;;;;;;;;;;22.53;37.02;99981.34;4965632;27;98019;-66
2023/04/11 10:09:26;;;;;;;;;;;;;;;22.30;37.22;99976.50;4940944;28;98864;-69
2023/04/11 10:11:52;;;;;;;;;;;;;;;22.24;37.41;99977.13;4934922;28;98203;-69
2023/04/11 10:14:37;;;;;;;;;;;;;;;22.09;37.56;99973.25;4943960;28;121841;-67
2023/04/11 10:17:19;;;;;;;;;;;;;;;22.06;37.65;99973.97;4948199;28;98148;-69
2023/04/11 10:19:46;;;;;;;;;;;;;;;21.87;38.13;99973.91;4947465;28;98842;-66
2023/04/11 10:22:41;;;;;;;;;;;;;;;21.80;38.11;99977.25;4948157;28;98885;-69
2023/04/11 10:25:16;;;;;;;;;;;;;;;21.71;38.16;99969.22;4946488;28;97930;-69
2023/04/11 10:27:49;;;;;;;;;;;;;;;21.84;37.88;99972.66;4946490;28;98482;-68
2023/04/11 10:30:15;;;;;;;;;;;;;;;22.11;37.63;99968.19;4944655;28;99014;-68
2023/04/11 10:33:15;;;;;;;;;;;;;;;22.73;37.00;99965.66;4947567;28;98445;-69
2023/04/11 10:36:01;;;;;;;;;;;;;;;23.55;36.39;99955.47;4938023;28;98189;-67
2023/04/11 10:38:42;;;;;;;;;;;;;;;24.62;35.85;99949.63;4950395;28;98341;-67
2023/04/11 10:41:21;;;;;;;;;;;;;;;25.84;35.13;99961.97;4947579;28;98758;-69
2023/04/11 10:43:47;;;;;;;;;;;;;;;26.54;34.59;99962.81;4948471;28;98707;-69
2023/04/11 10:46:31;;;;;;;;;;;;;;;25.83;35.78;99957.63;4949086;28;97955;-69
2023/04/11 10:49:04;;;;;;;;;;;;;;;25.27;36.77;99958.66;4945951;28;128778;-67
2023/04/11 10:51:31;;;;;;;;;;;;;;;24.85;37.39;99957.00;4945604;28;128551;-68
2023/04/11 10:54:00;;;;;;;;;;;;;;;24.32;37.64;99973.56;4944448;28;126065;-66
2023/04/11 10:56:49;;;;;;;;;;;;;;;23.83;37.87;99972.47;4931162;28;98014;-66
2023/04/11 10:59:30;;;;;;;;;;;;;;;23.38;38.27;99982.25;4946438;28;99705;-66
2023/04/11 11:01:57;;;;;;;;;;;;;;;23.01;38.66;99992.94;4946015;28;98876;-66
2023/04/11 11:04:36;;;;;;;;;;;;;;;22.63;38.71;100013.69;4948268;28;98714;-65
2023/04/11 11:07:03;;;;;;;;;;;;;;;22.28;39.14;100025.50;4947124;28;98212;-65
2023/04/11 11:09:29;;;;;;;;;;;;;;;22.00;39.26;100028.31;4954174;27;98027;-65
2023/04/11 11:12:07;;;;;;;;;;;;;;;21.77;39.24;100021.84;4965473;27;98543;-69
2023/04/11 11:14:33;;;;;;;;;;;;;;;21.61;39.26;100015.53;4956829;27;98092;-69
2023/04/11 11:16:59;;;;;;;;;;;;;;;21.60;39.22;100013.97;4963524;27;99441;-66
2023/04/11 11:19:25;;;;;;;;;;;;;;;21.69;38.84;100015.41;4963096;27;98759;-66
2023/04/11 11:21:51;;;;;;;;;;;;;;;22.00;38.46;100033.00;4923314;27;98331;-66
2023/04/11 11:24:26;;;;;;;;;;;;;;;22.68;37.63;100040.91;4965381;27;126914;-69
2023/04/11 11:26:53;;;;;;;;;;;;;;;23.90;36.48;100071.66;4965343;27;122800;-70
2023/04/11 11:29:36;;;;;;;;;;;;;;;24.19;36.55;100058.34;4961437;27;99766;-69
2023/04/11 11:32:02;;;;;;;;;;;;;;;23.80;37.15;100071.44;4960324;27;98821;-69
2023/04/11 11:34:29;;;;;;;;;;;;;;;24.08;37.33;100068.38;4967994;27;98602;-67
2023/04/11 11:36:56;;;;;;;;;;;;;;;24.27;37.28;100087.59;4969927;27;97856;-69
2023/04/11 11:39:22;;;;;;;;;;;;;;;23.86;37.38;100092.81;4971338;27;98582;-67
2023/04/11 11:41:48;;;;;;;;;;;;;;;23.52;37.94;100108.22;4949730;27;102100;-69
2023/04/11 11:44:21;;;;;;;;;;;;;;;23.18;38.42;100112.63;4952169;27;98443;-67
2023/04/11 11:47:24;;;;;;;;;;;;;;;22.87;38.40;100122.56;4970292;27;98158;-66
2023/04/11 11:49:51;;;;;;;;;;;;;;;22.65;38.66;100110.28;4875996;28;98640;-65
2023/04/11 11:52:38;;;;;;;;;;;;;;;22.59;38.43;100083.44;4950101;27;125162;-65
2023/04/11 11:55:08;;;;;;;;;;;;;;;22.62;38.50;100100.00;4966803;27;98166;-65
2023/04/11 11:57:35;;;;;;;;;;;;;;;22.63;38.49;100109.81;4969718;27;99262;-69
2023/04/11 12:00:04;;;;;;;;;;;;;;;22.66;38.35;100108.31;4964811;27;99068;-69
2023/04/11 12:02:31;;;;;;;;;;;;;;;22.71;38.32;100110.78;4966033;27;98291;-66
2023/04/11 12:05:04;;;;;;;;;;;;;;;23.22;37.59;100108.81;4939264;27;123808;-66
2023/04/11 12:07:33;;;;;;;;;;;;;;;23.42;37.68;100106.88;4966326;27;123218;-66
2023/04/11 12:10:06;;;;;;;;;;;;;;;23.66;37.24;100103.06;4966345;27;100379;-66
2023/04/11 12:12:33;;;;;;;;;;;;;;;23.87;37.05;100104.59;4967803;27;98319;-67
2023/04/11 12:15:00;;;;;;;;;;;;;;;24.18;37.14;100098.06;4967872;27;99527;-69
2023/04/11 12:17:33;;;;;;;;;;;;;;;25.13;36.07;100089.69;4969014;27;98120;-70
2023/04/11 12:20:00;;;;;;;;;;;;;;;25.53;35.97;100093.69;4967787;27;124161;-68
2023/04/11 12:22:26;;;;;;;;;;;;;;;26.62;35.25;100086.81;4968485;27;98910;-69
2023/04/11 12:25:02;;;;;;;;;;;;;;;27.70;34.52;100082.53;4966082;27;128674;-67
2023/04/11 12:27:28;;;;;;;;;;;;;;;28.45;34.22;100088.16;4968972;27;119355;-68
2023/04/11 12:29:54;;;;;;;;;;;;;;;28.83;34.12;100083.75;4966063;27;128889;-70
2023/04/11 12:32:20;;;;;;;;;;;;;;;29.07;34.65;100084.88;4966091;27;127436;-69
2023/04/11 12:34:46;;;;;;;;;;;;;;;29.55;34.45;100097.34;4967977;27;128660;-68
2023/04/11 12:37:12;;;;;;;;;;;;;;;29.98;34.25;100111.00;4953869;28;123164;-68
2023/04/11 12:39:38;;;;;;;;;;;;;;;30.40;33.98;100104.34;4963312;27;128145;-70